Time;durP1;ratioP1;P1;durP2;ratioP2;P2;SDS_P1;SDS_P2;PMS_P1;PMS_P2;Temp;Humidity;BMP_temperature;BMP_pressure;BME280_temperature;BME280_humidity;BME280_pressure;Samples;Min_cycle;Max_cycle;Signal;HPM_P1;HPM_P2
2022/04/16 00:02:09;;;;;;;9.63;5.60;;;;;;;10.02;61.68;100823.09;4902256;29;20052;-86
2022/04/16 00:04:35;;;;;;;13.02;5.50;;;;;;;10.02;61.62;100828.47;4900067;29;20032;-86
2022/04/16 00:07:01;;;;;;;10.85;5.70;;;;;;;10.10;61.51;100841.97;4917777;29;20115;-85
2022/04/16 00:09:31;;;;;;;9.52;5.60;;;;;;;10.11;61.34;100839.16;4899264;29;20469;-85
2022/04/16 00:11:57;;;;;;;10.48;5.50;;;;;;;10.11;61.13;100838.28;4899030;29;20561;-85
2022/04/16 00:14:25;;;;;;;11.80;5.47;;;;;;;10.12;61.04;100831.94;4900392;29;20055;-85
2022/04/16 00:16:54;;;;;;;8.35;5.45;;;;;;;10.15;61.06;100837.00;4924726;29;20060;-85
2022/04/16 00:19:21;;;;;;;12.95;5.88;;;;;;;10.14;60.77;100838.84;4914900;29;20032;-86
2022/04/16 00:21:47;;;;;;;9.65;5.50;;;;;;;10.13;60.25;100820.19;4917165;29;20036;-84
2022/04/16 00:24:15;;;;;;;11.18;5.53;;;;;;;10.20;60.25;100825.78;4884058;29;20054;-84
2022/04/16 00:26:50;;;;;;;10.52;5.70;;;;;;;10.13;60.10;100809.44;4930756;29;20555;-84
2022/04/16 00:29:17;;;;;;;11.93;5.60;;;;;;;10.17;59.53;100813.50;4934393;29;20102;-86
2022/04/16 00:31:45;;;;;;;10.63;5.38;;;;;;;10.20;58.93;100806.97;4896681;29;20028;-85
2022/04/16 00:34:14;;;;;;;7.47;5.22;;;;;;;10.14;58.93;100797.69;4914432;29;20489;-85
2022/04/16 00:36:42;;;;;;;8.93;5.15;;;;;;;10.25;58.39;100802.81;4905054;29;20385;-82
2022/04/16 00:39:09;;;;;;;10.30;5.13;;;;;;;10.26;57.85;100793.75;4918656;29;20492;-87
2022/04/16 00:41:36;;;;;;;9.20;5.13;;;;;;;10.22;57.82;100800.44;4904397;29;20038;-85
2022/04/16 00:44:03;;;;;;;8.82;5.13;;;;;;;10.23;57.82;100801.28;4932289;29;20051;-85
2022/04/16 00:46:31;;;;;;;12.80;5.57;;;;;;;10.29;58.08;100796.16;4903448;29;20036;-85
2022/04/16 00:48:57;;;;;;;9.63;5.38;;;;;;;10.30;57.55;100797.00;4931772;29;20039;-85
2022/04/16 00:51:26;;;;;;;11.63;5.00;;;;;;;10.35;57.27;100792.03;4913350;29;20048;-85
2022/04/16 00:53:55;;;;;;;10.40;5.30;;;;;;;10.31;57.71;100794.16;4887560;29;20134;-86
2022/04/16 00:56:23;;;;;;;13.80;5.78;;;;;;;10.23;57.33;100771.72;4907791;29;20569;-86
2022/04/16 00:58:49;;;;;;;11.65;5.30;;;;;;;10.39;56.90;100788.00;4910094;29;20059;-86
2022/04/16 01:01:15;;;;;;;11.32;5.35;;;;;;;10.40;56.64;100796.94;4889841;29;20063;-83
2022/04/16 01:03:43;;;;;;;13.50;5.77;;;;;;;10.34;57.04;100793.00;4896606;29;20507;-83
2022/04/16 01:06:18;;;;;;;11.07;5.10;;;;;;;10.32;56.95;100787.81;4920329;29;20315;-86
2022/04/16 01:08:44;;;;;;;11.10;5.50;;;;;;;10.38;56.66;100785.50;4912040;29;20043;-84
2022/04/16 01:11:11;;;;;;;8.45;5.15;;;;;;;10.35;56.65;100779.44;4893121;29;20043;-84
2022/04/16 01:13:37;;;;;;;10.85;5.20;;;;;;;10.16;56.77;100750.03;4912719;29;20067;-84
2022/04/16 01:16:22;;;;;;;12.30;5.32;;;;;;;10.32;56.94;100771.69;4896689;29;20087;-83
2022/04/16 01:18:48;;;;;;;11.40;5.57;;;;;;;10.27;56.88;100762.34;4932918;29;20074;-83
2022/04/16 01:21:14;;;;;;;8.95;5.60;;;;;;;10.26;56.85;100764.22;4886191;29;20493;-83
2022/04/16 01:23:40;;;;;;;10.07;4.85;;;;;;;10.19;57.43;100771.22;4915883;29;20120;-85
2022/04/16 01:26:06;;;;;;;12.18;5.63;;;;;;;9.98;58.37;100760.78;4888129;29;20035;-83
2022/04/16 01:28:32;;;;;;;;;;;;;;;9.99;59.18;100775.06;4918894;29;20039;-84
2022/04/16 01:31:01;;;;;;;12.05;6.10;;;;;;;9.91;59.14;100768.63;4920103;29;19922;-84
2022/04/16 01:33:28;;;;;;;11.00;5.50;;;;;;;9.97;59.37;100766.31;4883997;29;20436;-84
2022/04/16 01:36:18;;;;;;;11.48;6.20;;;;;;;9.97;59.70;100755.56;4905571;29;20067;-83
2022/04/16 01:38:44;;;;;;;12.00;6.38;;;;;;;9.98;59.84;100757.28;4892883;29;20024;-83
2022/04/16 01:41:12;;;;;;;10.33;5.90;;;;;;;10.01;59.89;100763.16;4899879;29;20044;-84
2022/04/16 01:43:38;;;;;;;14.23;6.35;;;;;;;9.99;59.60;100762.47;4891150;29;20443;-83
2022/04/16 01:46:06;;;;;;;11.80;6.38;;;;;;;9.95;59.48;100763.78;4889182;29;20043;-83
2022/04/16 01:48:32;;;;;;;16.23;6.13;;;;;;;9.92;59.70;100764.09;4920500;29;20039;-83
2022/04/16 01:50:58;;;;;;;14.63;6.07;;;;;;;9.87;59.72;100755.66;4908176;29;20099;-83
2022/04/16 01:53:23;;;;;;;14.15;6.88;;;;;;;9.83;60.10;100765.00;4893744;29;20044;-82
2022/04/16 01:55:49;;;;;;;14.10;6.65;;;;;;;9.79;59.82;100758.28;4918529;29;20575;-84
2022/04/16 01:58:15;;;;;;;10.63;6.47;;;;;;;9.77;59.92;100765.63;4932555;29;20122;-84
2022/04/16 02:00:47;;;;;;;9.38;6.10;;;;;;;9.52;61.13;100752.78;4891139;29;20074;-83
2022/04/16 02:03:14;;;;;;;15.02;6.05;;;;;;;9.64;60.91;100766.00;4932096;29;20032;-83
2022/04/16 02:05:40;;;;;;;11.35;5.80;;;;;;;9.72;60.36;100760.72;4919806;29;20035;-84
2022/04/16 02:08:07;;;;;;;10.45;6.13;;;;;;;9.64;60.21;100749.88;4899932;29;20119;-83
2022/04/16 02:10:34;;;;;;;13.90;6.90;;;;;;;9.66;60.33;100750.59;4924465;29;20085;-83
2022/04/16 02:13:03;;;;;;;11.00;6.40;;;;;;;9.67;60.28;100765.72;4894880;29;20054;-83
2022/04/16 02:15:31;;;;;;;12.75;6.10;;;;;;;9.68;60.53;100770.06;4874357;29;20059;-83
2022/04/16 02:17:57;;;;;;;12.50;6.50;;;;;;;9.47;60.67;100755.09;4933081;29;20050;-83
2022/04/16 02:20:23;;;;;;;12.43;6.20;;;;;;;9.52;61.01;100766.22;4907421;29;20036;-83
2022/04/16 02:22:48;;;;;;;9.95;6.25;;;;;;;9.33;61.21;100744.03;4903826;29;20303;-84
2022/04/16 02:25:17;;;;;;;13.25;6.10;;;;;;;9.41;61.17;100758.41;4913411;29;20036;-84
2022/04/16 02:27:49;;;;;;;10.98;6.47;;;;;;;9.40;61.34;100764.75;4887358;29;20051;-84
2022/04/16 02:30:16;;;;;;;15.25;6.45;;;;;;;9.38;61.26;100761.34;4927200;29;20036;-84
2022/04/16 02:32:43;;;;;;;16.65;7.10;;;;;;;9.37;61.44;100751.63;4885724;29;20051;-84
2022/04/16 02:35:13;;;;;;;9.82;6.60;;;;;;;9.34;61.37;100749.25;4912563;29;20044;-83
2022/04/16 02:37:38;;;;;;;11.77;7.72;;;;;;;9.36;61.44;100752.63;4919057;29;20094;-83
2022/04/16 02:40:10;;;;;;;10.80;6.87;;;;;;;9.36;61.52;100757.97;4897529;29;20047;-85
2022/04/16 02:42:36;;;;;;;15.85;6.88;;;;;;;9.35;61.58;100755.47;4918422;29;20785;-83
2022/04/16 02:47:52;;;;;;;12.20;6.90;;;;;;;9.19;62.12;100742.69;4917030;29;20075;-84
2022/04/16 02:50:25;;;;;;;16.38;7.30;;;;;;;9.14;61.84;100716.31;4913707;29;20054;-84
2022/04/16 02:52:51;;;;;;;11.30;6.88;;;;;;;9.26;61.86;100744.63;4901005;29;20139;-84
2022/04/16 02:55:17;;;;;;;13.50;6.93;;;;;;;9.24;61.88;100743.09;4905707;29;20087;-84
2022/04/16 02:57:44;;;;;;;11.85;6.93;;;;;;;9.19;62.35;100740.03;4918923;29;20118;-83
2022/04/16 03:00:14;;;;;;;11.00;6.75;;;;;;;9.20;62.40;100745.25;4908379;29;20100;-84
2022/04/16 03:02:40;;;;;;;10.18;6.50;;;;;;;9.07;62.39;100709.88;4917367;29;20036;-83
2022/04/16 03:05:06;;;;;;;15.48;7.38;;;;;;;9.12;62.62;100730.88;4895789;29;20110;-83
2022/04/16 03:07:35;;;;;;;13.60;7.47;;;;;;;9.09;62.68;100724.81;4911411;29;20043;-85
2022/04/16 03:10:05;;;;;;;16.50;7.70;;;;;;;9.14;62.59;100727.06;4910384;29;20044;-84
2022/04/16 03:12:55;;;;;;;15.95;7.50;;;;;;;9.11;63.17;100734.53;4917098;29;20028;-83
2022/04/16 03:18:13;;;;;;;15.98;7.63;;;;;;;8.99;62.92;100718.69;4936235;29;20115;-83
2022/04/16 03:20:42;;;;;;;19.50;7.40;;;;;;;8.86;63.67;100718.16;4900986;29;20082;-83
2022/04/16 03:23:09;;;;;;;14.23;7.45;;;;;;;8.95;63.64;100728.00;4900129;29;20071;-83
2022/04/16 03:25:41;;;;;;;17.08;7.63;;;;;;;9.02;63.49;100739.81;4877551;29;20046;-82
2022/04/16 03:28:06;;;;;;;14.10;8.60;;;;;;;8.97;63.96;100733.22;4881340;29;20033;-83
2022/04/16 03:30:35;;;;;;;14.93;8.10;;;;;;;8.97;64.75;100742.13;4893303;29;20464;-83
2022/04/16 03:33:01;;;;;;;15.13;8.20;;;;;;;8.96;64.76;100736.88;4881710;29;20328;-82
2022/04/16 03:35:28;;;;;;;13.35;8.40;;;;;;;8.94;66.11;100752.28;4880405;29;20484;-83
2022/04/16 03:37:54;;;;;;;16.42;8.63;;;;;;;8.96;65.48;100739.56;4898809;29;20037;-83
2022/04/16 03:40:20;;;;;;;16.42;8.88;;;;;;;8.86;65.68;100728.91;4889176;29;20485;-84
2022/04/16 03:42:49;;;;;;;17.48;9.65;;;;;;;9.02;66.13;100745.19;4899308;29;20040;-85
2022/04/16 03:45:43;;;;;;;20.70;10.07;;;;;;;9.08;65.29;100749.09;4894150;29;20079;-82
2022/04/16 03:48:09;;;;;;;17.25;8.98;;;;;;;9.06;65.19;100735.84;4879995;29;20056;-83
2022/04/16 03:50:34;;;;;;;19.08;9.98;;;;;;;9.15;64.67;100744.00;4894428;29;20045;-82
2022/04/16 03:53:00;;;;;;;19.38;10.32;;;;;;;9.13;64.57;100732.56;4927064;29;20196;-83
2022/04/16 04:00:58;;;;;;;29.83;12.73;;;;;;;9.27;63.78;100746.34;4886760;29;20051;-83
2022/04/16 04:03:23;;;;;;;30.40;12.18;;;;;;;9.25;64.04;100750.16;4914914;29;20032;-84
2022/04/16 04:05:49;;;;;;;32.13;12.20;;;;;;;9.38;63.76;100749.78;4910556;29;20036;-84
2022/04/16 04:08:15;;;;;;;30.52;12.75;;;;;;;9.36;63.69;100741.88;4899119;29;20040;-83
2022/04/16 04:10:42;;;;;;;24.60;11.57;;;;;;;9.43;63.74;100750.16;4879686;29;20151;-85
2022/04/16 04:13:08;;;;;;;21.52;10.95;;;;;;;9.39;63.76;100746.09;4880492;29;20072;-84
2022/04/16 04:15:37;;;;;;;21.90;11.07;;;;;;;9.64;63.08;100760.63;4880416;29;20119;-84
2022/04/16 04:18:03;;;;;;;21.48;10.82;;;;;;;9.77;62.93;100765.63;4899243;29;20074;-83
2022/04/16 04:20:30;;;;;;;;;;;;;;;9.88;62.72;100763.56;4893210;29;20059;-84
2022/04/16 04:23:03;;;;;;;30.52;11.13;;;;;;;9.91;62.84;100768.63;4913083;29;19923;-83
2022/04/16 04:25:30;;;;;;;19.60;10.75;;;;;;;9.97;63.73;100769.00;4919518;29;20040;-84
2022/04/16 04:27:56;;;;;;;25.13;11.65;;;;;;;10.06;63.13;100765.38;4902337;29;20119;-85
2022/04/16 04:30:24;;;;;;;25.02;11.32;;;;;;;10.22;62.90;100770.88;4920202;29;20078;-84
2022/04/16 04:32:50;;;;;;;29.38;11.88;;;;;;;10.33;62.21;100773.38;4932379;29;20044;-85
2022/04/16 04:35:16;;;;;;;24.75;11.32;;;;;;;10.42;62.02;100765.34;4909497;29;20464;-84
2022/04/16 04:37:42;;;;;;;24.65;10.77;;;;;;;10.50;62.22;100771.63;4898758;29;20028;-84
2022/04/16 04:40:11;;;;;;;23.52;11.48;;;;;;;10.59;62.23;100766.31;4923909;29;20062;-85
2022/04/16 04:42:37;;;;;;;26.05;11.05;;;;;;;10.63;62.09;100759.59;4932000;29;20249;-85
2022/04/16 04:45:14;;;;;;;19.45;11.20;;;;;;;10.73;62.29;100769.25;4895705;29;20044;-86
2022/04/16 04:47:39;;;;;;;23.90;11.27;;;;;;;10.74;62.10;100754.78;4898956;29;20032;-85
2022/04/16 04:50:31;;;;;;;16.27;9.70;;;;;;;11.00;62.00;100764.66;4922356;29;20039;-85
2022/04/16 04:52:59;;;;;;;16.75;9.82;;;;;;;11.14;61.66;100769.47;4909973;29;20343;-84
2022/04/16 04:55:26;;;;;;;19.20;10.05;;;;;;;11.25;61.41;100762.09;4944109;29;20031;-84
2022/04/16 04:57:54;;;;;;;19.83;10.00;;;;;;;11.37;61.09;100760.78;4919256;29;20043;-84
2022/04/16 05:00:21;;;;;;;26.77;11.68;;;;;;;11.47;60.77;100766.88;4915163;29;20186;-84
2022/04/16 05:02:48;;;;;;;33.78;14.15;;;;;;;11.64;60.06;100762.38;4898259;29;20028;-84
2022/04/16 05:05:15;;;;;;;24.83;13.18;;;;;;;12.34;58.32;100747.59;4887993;29;20055;-84
2022/04/16 05:07:45;;;;;;;35.53;17.58;;;;;;;14.64;51.39;100758.84;4899381;29;20044;-84
2022/04/16 05:10:11;;;;;;;36.80;17.77;;;;;;;16.25;45.96;100759.72;4926545;29;20043;-86
2022/04/16 05:12:36;;;;;;;34.22;16.33;;;;;;;17.67;42.46;100750.28;4915459;29;20055;-87
2022/04/16 05:15:04;;;;;;;34.70;17.08;;;;;;;19.15;38.84;100759.06;4893098;29;20070;-84
2022/04/16 05:17:29;;;;;;;35.70;16.80;;;;;;;20.12;36.35;100753.50;4911523;29;20059;-84
2022/04/16 05:19:55;;;;;;;;;;;;;;;21.16;34.49;100759.25;4896808;29;20047;-84
2022/04/16 05:22:20;;;;;;;27.02;15.18;;;;;;;21.88;33.38;100751.16;4930324;29;19918;-85
2022/04/16 05:24:51;;;;;;;20.27;15.20;;;;;;;22.75;31.30;100745.06;4926202;29;20064;-85
2022/04/16 05:27:16;;;;;;;33.75;18.33;;;;;;;23.03;30.82;100738.03;4928919;29;20059;-84
2022/04/16 05:32:35;;;;;;;34.00;16.30;;;;;;;24.27;28.56;100771.41;4904718;29;20043;-83
2022/04/16 05:35:05;;;;;;;27.13;15.85;;;;;;;24.68;27.69;100772.09;4914375;29;20070;-84
2022/04/16 05:37:31;;;;;;;22.40;14.25;;;;;;;25.48;27.34;100771.53;4905873;29;20127;-83
2022/04/16 05:39:57;;;;;;;29.42;15.48;;;;;;;26.15;26.02;100763.16;4903883;29;20056;-83
2022/04/16 05:42:22;;;;;;;30.00;16.45;;;;;;;27.34;24.74;100763.69;4911298;29;20126;-83
2022/04/16 05:44:48;;;;;;;28.90;17.25;;;;;;;27.30;23.88;100759.78;4911693;29;20414;-84
2022/04/16 05:47:13;;;;;;;31.80;17.85;;;;;;;27.90;24.22;100761.09;4895812;29;20477;-85
2022/04/16 05:49:43;;;;;;;35.20;20.73;;;;;;;28.65;23.14;100766.09;4894345;29;20063;-86
2022/04/16 05:52:09;;;;;;;36.10;21.60;;;;;;;29.55;21.84;100753.31;4923728;29;20040;-88
2022/04/16 05:54:38;;;;;;;38.00;21.27;;;;;;;30.04;21.46;100747.78;4889464;29;20054;-86
2022/04/16 05:57:04;;;;;;;36.28;24.48;;;;;;;30.56;20.64;100764.00;4911681;29;20059;-86
2022/04/16 05:59:32;;;;;;;38.38;23.50;;;;;;;30.92;20.33;100768.03;4913279;29;20405;-88
2022/04/16 06:01:59;;;;;;;33.20;18.17;;;;;;;31.65;19.78;100746.59;4901977;29;20032;-85
2022/04/16 06:04:27;;;;;;;31.02;18.65;;;;;;;32.26;18.92;100760.66;4926606;29;20052;-88
2022/04/16 06:06:54;;;;;;;31.17;19.38;;;;;;;32.43;18.74;100765.66;4897986;29;20060;-87
2022/04/16 06:09:23;;;;;;;42.28;20.17;;;;;;;32.55;18.79;100760.47;4895249;29;20120;-88
2022/04/16 06:11:52;;;;;;;39.33;20.48;;;;;;;31.96;18.86;100729.50;4934213;29;20119;-89
2022/04/16 06:14:21;;;;;;;30.95;18.02;;;;;;;32.23;19.00;100755.72;4928704;29;20445;-86
2022/04/16 06:16:48;;;;;;;33.95;17.65;;;;;;;32.33;18.76;100747.19;4906751;29;20024;-87
2022/04/16 06:19:14;;;;;;;32.72;15.75;;;;;;;32.21;18.58;100755.19;4895357;29;20028;-87
2022/04/16 06:21:40;;;;;;;28.55;16.30;;;;;;;32.22;18.57;100745.72;4910632;29;20064;-86
2022/04/16 06:24:06;;;;;;;30.35;17.00;;;;;;;32.66;18.41;100752.75;4913133;29;20043;-88
2022/04/16 06:26:32;;;;;;;35.58;21.65;;;;;;;33.17;18.48;100738.66;4918009;29;20490;-90
2022/04/16 06:28:57;;;;;;;47.65;19.20;;;;;;;33.49;18.88;100738.81;4895768;29;20040;-84
2022/04/16 06:31:24;;;;;;;33.97;16.48;;;;;;;33.61;17.75;100734.38;4927746;29;20522;-85
2022/04/16 06:33:55;;;;;;;33.70;16.38;;;;;;;33.87;17.23;100727.38;4921000;29;20043;-89
2022/04/16 06:36:34;;;;;;;32.53;17.48;;;;;;;33.64;18.46;100741.28;4913380;29;20067;-87
2022/04/16 06:39:01;;;;;;;35.95;16.38;;;;;;;33.56;18.59;100733.63;4936334;29;20071;-89
2022/04/16 06:41:26;;;;;;;40.05;18.63;;;;;;;33.80;18.65;100725.84;4945289;29;20062;-91
2022/04/16 06:43:53;;;;;;;38.67;16.17;;;;;;;33.12;19.06;100749.09;4918408;29;20035;-89
2022/04/16 06:46:21;;;;;;;36.63;16.70;;;;;;;33.63;18.38;100736.84;4897751;29;20099;-91
2022/04/16 06:48:48;;;;;;;34.45;16.80;;;;;;;33.85;18.50;100727.66;4914906;29;20075;-88
2022/04/16 06:51:13;;;;;;;38.60;17.50;;;;;;;34.45;16.62;100723.66;4931663;29;20437;-84
2022/04/16 06:53:39;;;;;;;33.42;18.38;;;;;;;34.58;17.29;100711.59;4889481;29;20039;-84
2022/04/16 06:56:10;;;;;;;31.60;18.70;;;;;;;33.96;17.45;100729.06;4909614;29;20102;-87
2022/04/16 06:58:36;;;;;;;31.63;17.48;;;;;;;33.83;17.21;100702.91;4930988;29;20047;-87
2022/04/16 07:01:02;;;;;;;34.17;19.55;;;;;;;34.20;17.19;100705.63;4890082;29;20032;-88
2022/04/16 07:03:28;;;;;;;29.63;15.35;;;;;;;34.58;16.33;100711.59;4921176;29;20083;-89
2022/04/16 07:05:54;;;;;;;34.70;15.65;;;;;;;35.22;16.16;100727.94;4908771;29;20536;-89
2022/04/16 07:08:20;;;;;;;31.10;14.88;;;;;;;35.35;15.88;100712.16;4925908;29;20023;-89
2022/04/16 07:10:46;;;;;;;29.45;12.60;;;;;;;35.65;15.77;100723.56;4895816;29;20097;-88
2022/04/16 07:13:15;;;;;;;25.67;11.02;;;;;;;35.64;15.71;100702.38;4918644;29;20028;-90
2022/04/16 07:15:40;;;;;;;19.73;8.43;;;;;;;33.34;18.20;100699.03;4893817;29;20044;-83
2022/04/16 07:18:07;;;;;;;18.80;9.20;;;;;;;31.90;18.75;100694.50;4929714;29;20024;-89
2022/04/16 07:20:33;;;;;;;21.90;9.30;;;;;;;30.88;20.13;100711.50;4910113;29;20176;-83
2022/04/16 07:22:59;;;;;;;19.90;7.63;;;;;;;31.92;20.16;100706.16;4935417;29;20130;-89
2022/04/16 07:25:26;;;;;;;25.38;8.93;;;;;;;31.83;19.69;100707.97;4910436;29;20146;-82
2022/04/16 07:27:51;;;;;;;20.52;7.88;;;;;;;32.15;18.43;100716.34;4899273;29;20382;-82
2022/04/16 07:30:18;;;;;;;18.77;9.57;;;;;;;32.18;19.02;100712.13;4907202;29;20035;-84
2022/04/16 07:33:15;;;;;;;26.00;8.38;;;;;;;32.33;18.49;100705.47;4911341;29;20394;-89
2022/04/16 07:35:41;;;;;;;20.67;8.25;;;;;;;31.47;19.28;100701.03;4910402;29;20039;-85
2022/04/16 07:38:07;;;;;;;23.60;8.32;;;;;;;30.74;20.10;100688.28;4900021;29;20040;-91
2022/04/16 07:40:34;;;;;;;16.25;7.40;;;;;;;30.40;20.10;100683.69;4913042;29;20718;-90
2022/04/16 07:43:04;;;;;;;15.80;8.10;;;;;;;30.12;21.55;100706.69;4917251;29;20044;-91
2022/04/16 07:46:02;;;;;;;16.95;7.60;;;;;;;30.99;19.95;100689.16;4907983;29;20059;-89
2022/04/16 07:48:39;;;;;;;17.70;8.20;;;;;;;31.14;19.95;100713.94;4940456;29;20059;-92
2022/04/16 07:51:06;;;;;;;20.65;7.40;;;;;;;31.32;19.79;100690.09;4996628;23;20102;-91
2022/04/16 07:53:36;;;;;;;17.73;8.05;;;;;;;31.57;19.49;100677.81;4962025;28;20026;-88
2022/04/16 07:56:11;;;;;;;19.25;8.43;;;;;;;31.29;19.82;100676.81;4944137;28;20043;-90
2022/04/16 07:58:45;;;;;;;18.52;8.00;;;;;;;30.98;20.31;100699.44;4915619;29;20058;-89
2022/04/16 08:01:13;;;;;;;14.90;7.63;;;;;;;29.85;22.13;100677.50;4934793;29;20155;-91
2022/04/16 08:03:51;;;;;;;21.83;7.97;;;;;;;27.97;24.77;100689.81;4920222;28;20043;-90
2022/04/16 08:06:20;;;;;;;16.13;7.97;;;;;;;28.97;23.62;100679.13;4931160;29;20024;-88
2022/04/16 08:09:04;;;;;;;12.63;8.00;;;;;;;29.44;23.02;100694.41;4910693;28;20405;-89
2022/04/16 08:11:35;;;;;;;19.52;8.23;;;;;;;30.15;21.80;100695.81;4948274;29;20031;-90
2022/04/16 08:14:23;;;;;;;19.85;8.32;;;;;;;29.67;22.26;100693.72;4924023;29;20066;-89
2022/04/16 08:16:56;;;;;;;19.38;8.30;;;;;;;29.64;22.48;100669.34;4977253;28;20065;-90
2022/04/16 08:19:27;;;;;;;19.83;7.90;;;;;;;29.16;23.46;100676.56;4926303;29;20095;-87
2022/04/16 08:21:53;;;;;;;15.93;7.85;;;;;;;29.59;23.57;100671.31;4928490;29;20047;-89
2022/04/16 08:24:39;;;;;;;12.18;7.35;;;;;;;29.21;23.55;100691.19;4967342;28;20039;-89
2022/04/16 08:27:08;;;;;;;15.52;7.85;;;;;;;29.02;24.28;100681.88;4912902;29;20105;-91
2022/04/16 08:29:37;;;;;;;13.00;7.40;;;;;;;29.36;23.44;100681.16;4917491;28;20051;-86
2022/04/16 08:32:04;;;;;;;13.45;8.02;;;;;;;29.19;23.73;100673.22;4947423;28;20664;-90
2022/04/16 08:34:30;;;;;;;14.75;7.80;;;;;;;28.22;24.89;100657.75;4916275;28;20039;-87
2022/04/16 08:37:01;;;;;;;13.40;7.57;;;;;;;27.54;26.40;100666.28;4933577;28;20031;-86
2022/04/16 08:39:29;;;;;;;18.05;8.35;;;;;;;27.79;24.87;100659.94;4933159;28;20062;-85
2022/04/16 08:41:57;;;;;;;16.02;8.40;;;;;;;27.98;25.52;100663.84;4923420;28;20046;-87
2022/04/16 08:44:33;;;;;;;11.50;6.90;;;;;;;28.08;25.38;100662.19;4951268;28;20083;-90
2022/04/16 08:47:02;;;;;;;17.65;6.93;;;;;;;28.47;24.77;100656.91;4932845;28;20493;-83
2022/04/16 08:49:27;;;;;;;14.77;7.03;;;;;;;28.93;24.88;100639.28;4913920;28;20030;-82
2022/04/16 08:51:53;;;;;;;11.07;6.63;;;;;;;28.96;24.94;100661.69;4949438;28;20118;-82
2022/04/16 08:54:21;;;;;;;13.98;7.78;;;;;;;28.60;24.01;100659.06;4932565;28;20039;-80
2022/04/16 08:56:46;;;;;;;12.80;7.13;;;;;;;28.36;25.38;100664.34;4946946;28;20047;-83
2022/04/16 08:59:12;;;;;;;16.88;7.28;;;;;;;27.52;26.21;100669.31;4917096;28;20492;-88
2022/04/16 09:01:39;;;;;;;11.20;6.85;;;;;;;27.89;25.74;100672.97;4929739;28;20106;-84
2022/04/16 09:04:06;;;;;;;16.20;7.32;;;;;;;28.90;25.02;100667.53;4949983;28;20043;-81
2022/04/16 09:06:32;;;;;;;14.85;7.20;;;;;;;27.95;25.93;100669.09;4948492;28;20031;-84
2022/04/16 09:09:09;;;;;;;11.77;7.38;;;;;;;27.35;27.19;100657.72;4931589;28;20047;-82
2022/04/16 09:11:37;;;;;;;15.25;7.03;;;;;;;24.02;30.94;100657.31;4916436;28;20058;-82
2022/04/16 09:14:03;;;;;;;13.65;7.68;;;;;;;24.40;31.07;100661.19;4932938;28;20035;-82
2022/04/16 09:16:32;;;;;;;15.15;7.50;;;;;;;23.20;32.92;100660.50;4950045;28;20043;-81
2022/04/16 09:18:58;;;;;;;11.65;7.57;;;;;;;22.57;34.35;100659.44;4926563;28;20193;-82
2022/04/16 09:21:29;;;;;;;11.60;7.78;;;;;;;22.90;34.06;100669.75;4918256;28;20547;-83
2022/04/16 09:24:02;;;;;;;17.30;8.07;;;;;;;22.98;34.02;100652.91;4919788;29;20050;-83
2022/04/16 09:26:34;;;;;;;17.02;7.50;;;;;;;22.96;34.23;100642.19;4930735;29;20035;-84
2022/04/16 09:29:13;;;;;;;14.10;7.53;;;;;;;22.64;34.38;100661.00;4915848;28;20070;-83
2022/04/16 09:31:39;;;;;;;11.98;7.57;;;;;;;22.63;34.58;100650.25;4942254;29;20059;-81
2022/04/16 09:34:05;;;;;;;11.90;7.40;;;;;;;23.18;33.81;100649.78;4917236;29;20118;-81
2022/04/16 09:36:31;;;;;;;17.55;8.25;;;;;;;23.34;34.09;100640.78;4923483;29;20393;-81
2022/04/16 09:39:07;;;;;;;11.73;7.57;;;;;;;23.87;32.89;100649.66;4900335;29;20027;-82
2022/04/16 09:41:33;;;;;;;15.20;8.35;;;;;;;24.05;32.33;100626.63;4942626;29;20101;-83
2022/04/16 09:43:59;;;;;;;13.55;7.25;;;;;;;23.34;34.11;100643.50;4949736;29;20123;-82
2022/04/16 09:46:27;;;;;;;12.10;7.03;;;;;;;23.24;34.38;100643.31;4925501;29;20043;-82
2022/04/16 09:48:54;;;;;;;11.90;6.88;;;;;;;22.16;36.17;100644.81;4950514;29;20031;-80
2022/04/16 09:51:20;;;;;;;12.60;7.30;;;;;;;23.09;35.64;100640.28;4898901;29;20527;-80
2022/04/16 09:53:45;;;;;;;13.82;6.78;;;;;;;23.11;34.79;100638.13;4916991;29;20102;-81
2022/04/16 09:56:11;;;;;;;14.18;7.10;;;;;;;23.48;33.97;100632.22;4927448;29;20353;-82
2022/04/16 09:58:40;;;;;;;16.27;7.55;;;;;;;23.96;33.21;100630.88;4900925;29;20078;-82
2022/04/16 10:01:09;;;;;;;10.63;6.55;;;;;;;24.37;32.95;100617.72;4943809;29;20039;-82
2022/04/16 10:03:35;;;;;;;14.38;7.40;;;;;;;23.10;34.83;100620.81;4933302;29;20457;-80
2022/04/16 10:06:00;;;;;;;14.95;10.50;;;;;;;23.22;34.77;100628.19;4904609;29;20091;-84
2022/04/16 10:08:27;;;;;;;11.05;7.25;;;;;;;22.85;35.36;100626.63;4916374;29;20035;-80
2022/04/16 10:10:54;;;;;;;11.32;7.13;;;;;;;22.37;35.75;100633.28;4927215;29;20480;-81
2022/04/16 10:13:20;;;;;;;14.82;6.95;;;;;;;23.19;35.07;100635.00;4916630;29;20036;-82
2022/04/16 10:15:55;;;;;;;12.75;6.65;;;;;;;23.34;33.99;100621.56;4922833;29;20042;-81
2022/04/16 10:18:21;;;;;;;14.40;7.07;;;;;;;23.08;34.84;100633.13;4916624;29;20209;-80
2022/04/16 10:20:54;;;;;;;10.43;6.72;;;;;;;23.78;33.85;100621.78;4927083;29;20110;-80
2022/04/16 10:23:32;;;;;;;10.60;6.63;;;;;;;24.26;32.22;100632.41;4916491;29;20055;-81
2022/04/16 10:26:10;;;;;;;16.17;7.05;;;;;;;23.69;33.56;100634.22;4922700;29;20113;-81
2022/04/16 10:28:42;;;;;;;11.95;7.28;;;;;;;23.86;32.72;100634.28;4952481;29;20464;-81
2022/04/16 10:31:27;;;;;;;11.80;7.45;;;;;;;24.87;31.38;100636.00;4918833;29;20504;-80
2022/04/16 10:34:08;;;;;;;17.30;7.55;;;;;;;24.71;31.81;100614.91;4951679;29;20205;-81
2022/04/16 10:36:51;;;;;;;11.80;6.32;;;;;;;25.58;30.12;100632.38;4932186;29;20211;-81
2022/04/16 10:39:24;;;;;;;13.35;6.63;;;;;;;25.34;30.70;100627.19;4903723;28;20120;-79
2022/04/16 10:42:03;;;;;;;12.95;6.70;;;;;;;24.68;31.30;100624.50;4928463;29;20134;-82
2022/04/16 10:44:30;;;;;;;13.52;6.57;;;;;;;23.77;33.14;100636.59;4911640;29;20042;-80
2022/04/16 10:46:58;;;;;;;10.57;6.30;;;;;;;24.22;32.78;100641.16;4922008;29;20500;-80
2022/04/16 10:49:25;;;;;;;13.75;6.38;;;;;;;23.65;33.72;100644.06;4908021;29;20049;-80
2022/04/16 10:51:52;;;;;;;9.00;5.72;;;;;;;23.54;34.63;100653.19;4944641;29;20108;-82
2022/04/16 10:54:34;;;;;;;11.95;5.35;;;;;;;24.80;32.17;100638.13;4922452;29;20035;-81
2022/04/16 10:57:00;;;;;;;10.77;5.70;;;;;;;26.02;30.50;100637.72;4928118;29;20059;-81
2022/04/16 10:59:36;;;;;;;9.23;5.05;;;;;;;26.39;30.26;100643.19;4939360;29;20063;-80
2022/04/16 11:02:02;;;;;;;9.50;4.47;;;;;;;26.43;30.21;100640.72;4947532;29;20523;-81
2022/04/16 11:04:28;;;;;;;15.07;5.35;;;;;;;26.81;29.21;100638.72;4923060;29;20044;-81
2022/04/16 11:06:57;;;;;;;11.68;5.20;;;;;;;25.81;30.47;100626.50;4939655;29;20554;-81
2022/04/16 11:09:22;;;;;;;10.70;5.22;;;;;;;26.29;29.82;100638.47;4935526;29;20527;-80
2022/04/16 11:11:54;;;;;;;9.52;5.28;;;;;;;26.71;29.87;100647.78;4920712;29;20074;-82
2022/04/16 11:14:19;;;;;;;14.52;4.82;;;;;;;26.62;28.85;100633.72;4948882;29;20114;-81
2022/04/16 11:16:46;;;;;;;11.40;5.78;;;;;;;25.71;31.08;100640.22;4931467;29;20034;-80
2022/04/16 11:19:15;;;;;;;7.78;5.43;;;;;;;25.60;30.72;100631.00;4954227;29;20051;-79
2022/04/16 11:21:41;;;;;;;10.82;5.63;;;;;;;24.72;32.19;100641.31;4927724;29;20433;-80
2022/04/16 11:24:06;;;;;;;13.77;5.68;;;;;;;25.00;32.46;100630.09;4938045;29;20061;-81
2022/04/16 11:34:50;;;;;;;12.98;5.30;;;;;;;26.29;30.41;100637.59;4938743;29;20047;-80
2022/04/16 11:37:16;;;;;;;11.13;4.82;;;;;;;25.70;30.93;100635.78;4927557;29;20587;-80
2022/04/16 11:39:41;;;;;;;8.43;4.82;;;;;;;25.85;30.81;100637.84;4940589;29;20110;-81
2022/04/16 11:42:10;;;;;;;10.20;5.28;;;;;;;25.65;31.12;100644.00;4946901;29;20035;-80
2022/04/16 11:44:43;;;;;;;7.38;5.20;;;;;;;25.17;31.83;100624.53;4933802;29;20062;-81
2022/04/16 11:47:09;;;;;;;13.70;5.88;;;;;;;25.28;32.10;100618.03;4912122;29;20428;-80
2022/04/16 11:49:36;;;;;;;8.32;4.82;;;;;;;24.94;32.47;100609.13;4938087;29;20027;-80